Time;durP1;ratioP1;P1;durP2;ratioP2;P2;SDS_P1;SDS_P2;PMS_P1;PMS_P2;Temp;Humidity;BMP_temperature;BMP_pressure;BME280_temperature;BME280_humidity;BME280_pressure;Samples;Min_cycle;Max_cycle;Signal;HPM_P1;HPM_P2
2023/07/01 00:00:42;;;;;;;6.75;2.05;;;;;;;20.14;48.02;100100.59;4202464;28;20047;-66
2023/07/01 00:02:48;;;;;;;;;;;;;;;19.99;48.25;100101.06;4195983;28;20636;-67
2023/07/01 00:04:51;;;;;;;7.57;1.60;;;;;;;19.97;48.23;100103.75;4188420;28;20387;-67
2023/07/01 00:06:54;;;;;;;9.30;1.80;;;;;;;19.96;47.98;100098.53;4204153;28;20046;-67
2023/07/01 00:08:58;;;;;;;4.53;1.70;;;;;;;19.92;48.15;100102.16;4206338;28;20155;-66
2023/07/01 00:11:02;;;;;;;4.75;2.00;;;;;;;19.87;47.75;100095.28;4206070;28;20032;-67
2023/07/01 00:13:04;;;;;;;5.18;1.90;;;;;;;19.87;48.04;100091.75;4201815;28;20264;-67
2023/07/01 00:15:08;;;;;;;4.72;2.22;;;;;;;19.85;47.82;100097.06;4205292;28;20062;-66
2023/07/01 00:17:12;;;;;;;3.05;1.63;;;;;;;19.86;48.13;100087.41;4198081;28;20038;-67
2023/07/01 00:19:15;;;;;;;7.53;2.08;;;;;;;19.85;48.32;100088.31;4176173;28;20597;-67
2023/07/01 00:21:18;;;;;;;10.30;2.25;;;;;;;19.85;48.63;100078.59;4199449;28;20118;-67
2023/07/01 00:23:21;;;;;;;6.75;1.98;;;;;;;19.79;48.84;100078.81;4202672;28;20501;-66
2023/07/01 00:25:25;;;;;;;3.00;1.90;;;;;;;19.74;48.80;100091.22;4166844;28;20454;-66
2023/07/01 00:27:28;;;;;;;7.82;2.28;;;;;;;19.66;48.83;100085.31;4203004;28;20043;-66
2023/07/01 00:29:31;;;;;;;3.67;1.75;;;;;;;19.64;48.68;100077.47;4183681;28;20044;-67
2023/07/01 00:31:33;;;;;;;6.07;1.80;;;;;;;19.64;48.46;100084.47;4202118;28;20682;-66
2023/07/01 00:33:36;;;;;;;6.32;2.15;;;;;;;19.63;48.89;100085.41;4167864;28;20045;-67
2023/07/01 00:35:39;;;;;;;3.85;1.88;;;;;;;19.62;49.00;100084.53;4199784;28;20040;-66
2023/07/01 00:37:42;;;;;;;2.97;1.60;;;;;;;19.57;49.05;100082.97;4203865;28;20070;-67
2023/07/01 00:39:45;;;;;;;4.78;1.73;;;;;;;19.49;49.31;100073.50;4183351;28;22474;-66
2023/07/01 00:41:54;;;;;;;7.32;2.17;;;;;;;19.48;49.12;100077.03;4201491;28;20071;-67
2023/07/01 00:43:56;;;;;;;3.78;1.75;;;;;;;19.42;48.84;100069.31;4196911;28;20074;-66
2023/07/01 00:45:59;;;;;;;4.82;2.08;;;;;;;19.39;49.38;100064.13;4177347;28;20071;-67
2023/07/01 00:48:02;;;;;;;4.15;1.40;;;;;;;19.35;49.24;100073.03;4192756;28;20033;-67
2023/07/01 00:50:07;;;;;;;6.40;2.30;;;;;;;19.34;49.20;100076.56;4166501;28;20140;-67
2023/07/01 00:52:10;;;;;;;5.68;2.08;;;;;;;19.28;49.70;100077.59;4180394;28;20496;-66
2023/07/01 00:54:13;;;;;;;2.90;1.65;;;;;;;19.26;49.96;100066.25;4199137;28;20576;-67
2023/07/01 00:56:16;;;;;;;7.30;2.15;;;;;;;19.18;49.97;100069.06;4179508;28;20037;-66
2023/07/01 00:58:20;;;;;;;8.05;1.88;;;;;;;19.15;50.52;100074.44;4179388;28;20037;-66
2023/07/01 01:00:24;;;;;;;5.43;1.90;;;;;;;19.12;50.61;100077.16;4193042;22;20582;-64
2023/07/01 01:02:31;;;;;;;4.75;1.88;;;;;;;19.11;50.85;100077.19;4182666;28;20037;-64
2023/07/01 01:04:40;;;;;;;6.40;2.40;;;;;;;19.07;51.16;100065.00;4175660;28;20402;-65
2023/07/01 01:06:47;;;;;;;6.75;2.10;;;;;;;19.03;51.58;100072.16;4175323;28;20045;-64
2023/07/01 01:08:58;;;;;;;5.95;2.00;;;;;;;19.01;51.35;100076.56;4181642;28;20394;-65
2023/07/01 01:11:02;;;;;;;4.07;1.98;;;;;;;18.97;52.03;100077.59;4159075;28;20045;-64
2023/07/01 01:13:05;;;;;;;5.88;1.95;;;;;;;18.96;52.23;100081.97;4190434;28;20045;-64
2023/07/01 01:15:11;;;;;;;3.72;2.10;;;;;;;18.92;52.27;100076.81;4188355;28;20140;-63
2023/07/01 01:17:15;;;;;;;4.82;2.10;;;;;;;18.89;53.07;100072.50;4191118;28;20039;-63
2023/07/01 01:19:28;;;;;;;4.30;2.08;;;;;;;18.87;53.56;100065.56;4191125;28;20044;-63
2023/07/01 01:21:31;;;;;;;9.10;2.47;;;;;;;18.69;54.81;100061.59;4190423;28;20454;-64
2023/07/01 01:23:39;;;;;;;6.10;2.20;;;;;;;18.60;55.48;100071.47;4191537;28;20516;-63
2023/07/01 01:25:47;;;;;;;5.05;2.80;;;;;;;18.52;55.64;100065.53;4188270;28;20507;-63
2023/07/01 01:27:52;;;;;;;6.60;3.08;;;;;;;18.52;55.97;100069.94;4191420;28;20036;-64
2023/07/01 01:29:55;;;;;;;7.20;2.72;;;;;;;18.46;56.22;100069.16;4174317;28;20052;-63
2023/07/01 01:31:58;;;;;;;9.52;2.83;;;;;;;18.47;56.51;100059.50;4190976;28;20477;-64
2023/07/01 01:34:01;;;;;;;6.65;2.75;;;;;;;18.48;56.92;100063.88;4191131;28;20040;-63
2023/07/01 01:36:09;;;;;;;8.32;3.28;;;;;;;18.42;57.30;100056.97;4192740;28;20127;-64
2023/07/01 01:38:18;;;;;;;9.07;3.53;;;;;;;18.37;57.63;100068.50;4190665;28;20132;-63
2023/07/01 01:40:25;;;;;;;7.25;3.28;;;;;;;18.25;57.85;100067.94;4176159;28;20128;-64
2023/07/01 01:42:33;;;;;;;6.47;2.95;;;;;;;18.24;57.32;100058.31;4178075;28;20067;-63
2023/07/01 01:44:45;;;;;;;6.13;2.80;;;;;;;18.26;57.34;100059.13;4196992;28;20044;-64
2023/07/01 01:46:48;;;;;;;5.90;2.67;;;;;;;18.28;57.13;100053.81;4180067;28;20082;-65
2023/07/01 01:48:53;;;;;;;8.15;2.88;;;;;;;18.29;56.63;100051.16;4177873;28;20340;-65
2023/07/01 01:50:58;;;;;;;4.75;2.45;;;;;;;18.30;56.03;100046.78;4196330;28;20036;-64
2023/07/01 01:53:02;;;;;;;9.65;2.67;;;;;;;18.28;56.47;100044.19;4194547;28;20391;-63
2023/07/01 01:55:07;;;;;;;7.72;2.67;;;;;;;18.23;56.89;100050.44;4196208;28;20056;-63
2023/07/01 01:57:10;;;;;;;4.15;2.38;;;;;;;18.20;56.93;100046.13;4162371;28;20041;-64
2023/07/01 01:59:13;;;;;;;5.72;2.88;;;;;;;18.19;56.61;100047.00;4178822;28;20557;-63
2023/07/01 02:01:17;;;;;;;5.93;2.45;;;;;;;18.14;56.72;100048.91;4176407;28;20045;-63
2023/07/01 02:03:20;;;;;;;6.30;2.20;;;;;;;18.12;57.05;100048.94;4176331;28;20098;-63
2023/07/01 02:05:23;;;;;;;5.75;3.00;;;;;;;18.08;56.61;100042.00;4161410;28;20076;-63
2023/07/01 02:07:28;;;;;;;;;;;;;;;17.93;56.85;100044.97;4195543;28;20037;-63
2023/07/01 02:09:31;;;;;;;6.93;2.83;;;;;;;17.90;56.90;100045.06;4178077;28;19921;-63
2023/07/01 02:11:33;;;;;;;5.40;2.80;;;;;;;17.92;56.77;100040.66;4191736;28;20123;-63
2023/07/01 02:13:36;;;;;;;6.57;3.00;;;;;;;17.98;55.70;100043.13;4194356;28;20076;-63
2023/07/01 02:15:39;;;;;;;6.85;2.70;;;;;;;17.99;55.68;100038.72;4176653;28;20083;-63
2023/07/01 02:17:45;;;;;;;;;;;;;;;17.86;55.53;100038.97;4177865;28;20037;-63
2023/07/01 02:19:48;;;;;;;5.53;2.20;;;;;;;17.88;55.48;100038.94;4191731;28;19921;-64
2023/07/01 02:21:51;;;;;;;8.65;2.55;;;;;;;17.89;55.73;100038.06;4160600;28;20531;-63
2023/07/01 02:23:54;;;;;;;4.78;2.35;;;;;;;17.89;55.25;100031.03;4191038;28;20055;-63
2023/07/01 02:25:56;;;;;;;5.30;2.58;;;;;;;17.93;55.29;100037.09;4176141;28;20045;-63
2023/07/01 02:27:59;;;;;;;6.32;2.38;;;;;;;17.92;54.87;100035.38;4175238;28;20087;-63
2023/07/01 02:30:02;;;;;;;5.78;2.42;;;;;;;17.92;55.14;100030.13;4194067;28;20071;-63
2023/07/01 02:32:07;;;;;;;4.72;1.92;;;;;;;17.88;55.20;100042.44;4194645;28;20036;-63
2023/07/01 02:34:11;;;;;;;6.32;2.50;;;;;;;17.86;55.72;100038.97;4193352;28;20068;-63
2023/07/01 02:36:14;;;;;;;6.15;2.40;;;;;;;17.89;55.53;100048.56;4193313;28;20578;-64
2023/07/01 02:38:17;;;;;;;3.25;2.08;;;;;;;17.83;55.38;100046.06;4177267;28;20045;-63
2023/07/01 02:40:20;;;;;;;3.45;2.30;;;;;;;17.86;55.09;100043.34;4177975;28;20107;-64
2023/07/01 02:42:24;;;;;;;3.78;2.47;;;;;;;17.86;54.97;100038.09;4161017;28;20049;-64
2023/07/01 02:44:27;;;;;;;4.30;2.33;;;;;;;17.74;54.89;100034.88;4192027;28;20082;-64
2023/07/01 02:46:30;;;;;;;8.13;2.67;;;;;;;17.58;54.83;100036.09;4175620;28;20131;-64
2023/07/01 02:48:33;;;;;;;5.03;2.50;;;;;;;17.61;55.27;100031.63;4193232;28;20051;-64
2023/07/01 02:50:37;;;;;;;5.97;2.85;;;;;;;17.70;55.19;100029.72;4176537;28;20518;-64
2023/07/01 02:52:40;;;;;;;6.13;3.03;;;;;;;17.70;55.03;100034.97;4193557;28;20040;-64
2023/07/01 02:54:43;;;;;;;5.90;2.75;;;;;;;17.71;55.00;100048.09;4175084;28;20057;-64
2023/07/01 02:56:46;;;;;;;4.65;2.53;;;;;;;17.71;55.24;100042.81;4174922;28;20049;-64
2023/07/01 02:58:49;;;;;;;6.03;2.53;;;;;;;17.75;54.70;100041.84;4191868;28;20047;-64
2023/07/01 03:00:52;;;;;;;6.07;2.53;;;;;;;17.68;54.97;100032.34;4179007;28;20601;-65
2023/07/01 03:03:05;;;;;;;7.63;2.80;;;;;;;17.57;55.33;100039.63;4194752;28;20045;-64
2023/07/01 03:05:10;;;;;;;6.35;2.45;;;;;;;17.58;55.51;100043.97;4177118;28;20765;-64
2023/07/01 03:07:14;;;;;;;6.70;2.60;;;;;;;17.57;55.60;100039.63;4176662;28;20056;-64
2023/07/01 03:09:17;;;;;;;4.63;2.40;;;;;;;17.56;55.42;100038.75;4176739;28;20127;-64
2023/07/01 03:11:20;;;;;;;3.65;2.33;;;;;;;17.56;55.57;100043.16;4191438;28;20397;-64
2023/07/01 03:13:23;;;;;;;4.03;2.22;;;;;;;17.61;55.69;100033.41;4196329;28;20043;-64
2023/07/01 03:15:26;;;;;;;4.43;2.80;;;;;;;17.60;55.65;100047.44;4194895;28;20079;-64
2023/07/01 03:17:29;;;;;;;4.00;2.42;;;;;;;17.53;55.70;100038.81;4192661;28;20040;-64
2023/07/01 03:19:32;;;;;;;5.07;2.95;;;;;;;17.47;55.99;100041.56;4175710;28;20036;-64
2023/07/01 03:21:37;;;;;;;4.40;2.42;;;;;;;17.45;56.10;100046.88;4176574;28;20178;-64
2023/07/01 03:23:41;;;;;;;;;;;;;;;17.27;56.62;100042.88;4195199;28;20040;-64
2023/07/01 03:25:44;;;;;;;3.72;2.60;;;;;;;17.30;56.36;100036.66;4193153;28;19979;-64
2023/07/01 03:27:47;;;;;;;6.15;2.40;;;;;;;17.34;56.08;100046.22;4176335;28;20421;-65
2023/07/01 03:29:50;;;;;;;4.72;2.85;;;;;;;17.33;56.45;100051.50;4195065;28;20397;-64
2023/07/01 03:31:53;;;;;;;3.60;2.17;;;;;;;17.32;56.60;100045.41;4175406;28;20131;-64
2023/07/01 03:33:56;;;;;;;3.25;2.30;;;;;;;17.35;56.53;100055.84;4193265;28;20094;-64
2023/07/01 03:35:59;;;;;;;6.00;2.60;;;;;;;17.37;56.70;100046.16;4194713;28;20040;-65
2023/07/01 03:38:02;;;;;;;4.53;2.80;;;;;;;17.35;56.68;100047.94;4194871;28;20505;-65
2023/07/01 03:40:10;;;;;;;3.42;2.20;;;;;;;17.33;56.99;100047.09;4195376;28;20486;-64
2023/07/01 03:42:13;;;;;;;5.95;2.40;;;;;;;17.31;56.96;100045.44;4192616;28;20044;-65
2023/07/01 03:44:15;;;;;;;5.45;2.72;;;;;;;17.34;57.53;100048.00;4194797;28;20123;-64
2023/07/01 03:46:18;;;;;;;7.85;3.70;;;;;;;17.50;57.04;100046.75;4176348;28;20120;-64
2023/07/01 03:48:21;;;;;;;4.85;2.83;;;;;;;17.37;57.11;100040.91;4194576;28;20481;-63
2023/07/01 03:50:25;;;;;;;4.95;2.95;;;;;;;17.33;57.47;100046.25;4194410;28;20316;-64
2023/07/01 03:52:27;;;;;;;6.80;3.08;;;;;;;17.41;57.47;100045.19;4194874;28;20044;-64
2023/07/01 03:54:30;;;;;;;5.72;3.13;;;;;;;17.28;57.83;100048.97;4189752;28;20047;-64
2023/07/01 03:56:35;;;;;;;6.13;3.20;;;;;;;17.25;58.14;100043.78;4194627;28;20037;-64
2023/07/01 03:58:37;;;;;;;6.90;3.42;;;;;;;17.30;58.03;100041.91;4192506;28;20044;-64
2023/07/01 04:00:40;;;;;;;5.45;3.28;;;;;;;17.26;58.30;100038.50;4192457;28;20484;-63
2023/07/01 04:02:43;;;;;;;3.83;2.67;;;;;;;17.27;58.23;100034.97;4194150;28;20037;-63
2023/07/01 04:04:46;;;;;;;5.70;3.20;;;;;;;17.31;58.65;100033.16;4194510;28;20106;-64
2023/07/01 04:06:49;;;;;;;3.60;2.70;;;;;;;17.33;58.78;100041.84;4194356;28;20063;-64
2023/07/01 04:08:54;;;;;;;4.35;2.80;;;;;;;17.34;58.86;100043.59;4194161;28;20044;-64
2023/07/01 04:10:58;;;;;;;3.95;2.78;;;;;;;17.36;59.18;100047.06;4190530;28;20395;-64
2023/07/01 04:13:12;;;;;;;4.55;2.72;;;;;;;17.42;59.42;100039.06;4190424;28;20167;-64
2023/07/01 04:15:15;;;;;;;3.95;2.80;;;;;;;17.43;59.47;100040.78;4193937;28;20041;-64
2023/07/01 04:17:17;;;;;;;3.85;2.90;;;;;;;17.54;59.77;100042.31;4176530;28;20124;-64
2023/07/01 04:19:20;;;;;;;4.70;2.72;;;;;;;17.58;59.64;100041.34;4194697;28;20139;-64
2023/07/01 04:21:23;;;;;;;5.13;3.05;;;;;;;17.48;59.08;100039.81;4193999;28;20044;-64
2023/07/01 04:23:26;;;;;;;4.97;2.90;;;;;;;17.43;58.58;100042.53;4175459;28;20099;-64
2023/07/01 04:25:29;;;;;;;4.32;2.28;;;;;;;17.36;59.16;100039.19;4193639;28;20401;-64
2023/07/01 04:27:33;;;;;;;4.53;2.75;;;;;;;17.44;59.46;100034.63;4191515;28;20037;-64
2023/07/01 04:29:37;;;;;;;4.10;2.85;;;;;;;17.46;59.03;100031.94;4184278;28;20451;-64
2023/07/01 04:31:40;;;;;;;3.70;2.40;;;;;;;17.54;58.65;100026.56;4194306;28;20036;-64
2023/07/01 04:33:43;;;;;;;4.57;2.65;;;;;;;17.59;58.50;100024.69;4193722;28;20032;-64
2023/07/01 04:35:46;;;;;;;4.55;2.92;;;;;;;17.68;58.32;100021.84;4175547;28;20099;-64
2023/07/01 04:37:49;;;;;;;6.03;2.97;;;;;;;17.77;57.50;100019.03;4190182;28;20494;-64
2023/07/01 04:39:52;;;;;;;4.15;2.50;;;;;;;17.80;57.56;100020.72;4194026;28;20068;-64
2023/07/01 04:41:55;;;;;;;5.90;2.85;;;;;;;17.86;57.64;100014.44;4193905;28;20048;-63
2023/07/01 04:43:58;;;;;;;3.72;2.35;;;;;;;17.87;57.32;100018.81;4194350;28;20468;-64
2023/07/01 04:46:03;;;;;;;6.32;2.65;;;;;;;17.73;57.25;100011.25;4194005;28;20037;-64
2023/07/01 04:48:06;;;;;;;3.42;1.98;;;;;;;17.70;57.32;100020.06;4194379;28;20598;-64
2023/07/01 04:50:09;;;;;;;4.20;2.17;;;;;;;17.67;57.35;100017.50;4192812;28;20040;-64
2023/07/01 04:52:14;;;;;;;4.97;2.40;;;;;;;17.77;57.44;100020.75;4193711;28;20116;-64
2023/07/01 04:54:17;;;;;;;3.25;2.10;;;;;;;17.77;57.32;100021.66;4175699;28;20036;-64
2023/07/01 04:56:23;;;;;;;3.47;2.40;;;;;;;17.91;57.11;100023.13;4194411;28;20478;-64
2023/07/01 04:58:26;;;;;;;4.22;2.17;;;;;;;17.86;56.57;100020.56;4192620;28;20056;-64
2023/07/01 05:00:29;;;;;;;3.20;2.30;;;;;;;17.86;56.57;100015.31;4193585;28;20072;-64
2023/07/01 05:02:33;;;;;;;4.22;2.42;;;;;;;17.95;56.94;100025.66;4191705;28;20557;-64
2023/07/01 05:04:37;;;;;;;;;;;;;;;17.85;56.91;100017.97;4193396;28;20383;-64
2023/07/01 05:06:40;;;;;;;3.03;1.92;;;;;;;17.89;57.17;100022.28;4175832;28;19983;-64
2023/07/01 05:08:43;;;;;;;5.50;2.50;;;;;;;18.00;56.67;100017.63;4194002;28;20437;-64
2023/07/01 05:10:46;;;;;;;6.35;2.50;;;;;;;18.09;56.79;100019.19;4192483;28;20040;-64
2023/07/01 05:12:49;;;;;;;3.58;2.38;;;;;;;18.12;56.23;100016.47;4173338;28;20068;-64
2023/07/01 05:14:52;;;;;;;4.20;2.03;;;;;;;18.22;56.10;100017.13;4196524;28;20409;-64
2023/07/01 05:16:55;;;;;;;4.78;2.28;;;;;;;18.33;56.30;100017.75;4196890;28;20040;-64
2023/07/01 05:18:59;;;;;;;4.75;2.40;;;;;;;18.39;56.20;100014.94;4197132;28;20506;-63
2023/07/01 05:21:02;;;;;;;3.97;2.45;;;;;;;18.48;56.03;100008.59;4197561;28;20509;-64
2023/07/01 05:23:05;;;;;;;4.72;2.55;;;;;;;18.62;55.74;100018.78;4197441;28;20474;-64
2023/07/01 05:25:09;;;;;;;4.38;2.22;;;;;;;18.68;55.14;100018.59;4178923;28;20037;-64
2023/07/01 05:27:11;;;;;;;6.28;2.78;;;;;;;18.44;55.36;100010.44;4196778;28;20128;-64
2023/07/01 05:29:14;;;;;;;4.10;2.33;;;;;;;18.41;55.25;100012.28;4192621;28;20047;-64
2023/07/01 05:31:17;;;;;;;4.22;2.20;;;;;;;18.41;55.35;100013.16;4179458;28;20151;-64
2023/07/01 05:33:20;;;;;;;4.88;2.30;;;;;;;18.50;55.37;100006.78;4177660;28;20045;-63
2023/07/01 05:35:24;;;;;;;4.40;2.10;;;;;;;18.54;55.62;100013.69;4196215;28;20440;-64
2023/07/01 05:37:27;;;;;;;5.38;2.30;;;;;;;18.73;54.58;100007.94;4196340;28;20036;-64
2023/07/01 05:39:31;;;;;;;4.03;2.42;;;;;;;18.83;54.38;100015.53;4193511;28;20047;-63
2023/07/01 05:41:33;;;;;;;11.27;2.85;;;;;;;18.87;54.57;100011.09;4196803;28;20033;-64
2023/07/01 05:43:36;;;;;;;3.67;2.28;;;;;;;18.77;54.81;100007.81;4196729;28;20398;-63
2023/07/01 05:45:40;;;;;;;4.68;2.50;;;;;;;18.88;54.00;100015.47;4195458;28;20044;-63
2023/07/01 05:47:42;;;;;;;5.05;2.42;;;;;;;19.05;53.57;100014.13;4194252;28;20071;-64
2023/07/01 05:49:45;;;;;;;5.00;2.45;;;;;;;18.87;53.69;100018.16;4176154;28;20064;-64
2023/07/01 05:51:50;;;;;;;4.93;2.28;;;;;;;18.83;53.91;100025.22;4196477;28;20037;-63
2023/07/01 05:53:52;;;;;;;3.95;2.22;;;;;;;18.88;54.40;100018.13;4196713;28;20040;-63
2023/07/01 05:55:55;;;;;;;4.13;2.08;;;;;;;19.14;53.35;100009.47;4177521;28;20438;-64
2023/07/01 05:57:58;;;;;;;3.58;1.98;;;;;;;19.23;53.27;100008.34;4177503;28;20041;-63
2023/07/01 06:00:04;;;;;;;6.35;2.33;;;;;;;19.38;52.58;100014.94;4194873;28;20028;-64
2023/07/01 06:02:13;;;;;;;6.00;2.50;;;;;;;19.36;52.90;100008.84;4194354;28;20072;-64
2023/07/01 06:04:16;;;;;;;6.88;2.53;;;;;;;19.41;52.86;100012.22;4196340;28;20134;-64
2023/07/01 06:06:19;;;;;;;5.28;2.40;;;;;;;19.60;53.05;100003.75;4180456;28;20129;-63
2023/07/01 06:08:23;;;;;;;7.30;2.60;;;;;;;19.74;52.18;100009.44;4179923;28;20434;-64
2023/07/01 06:10:26;;;;;;;3.65;2.20;;;;;;;19.82;51.82;100011.91;4191881;28;20067;-64
2023/07/01 06:12:29;;;;;;;5.88;2.40;;;;;;;19.87;51.94;100012.59;4196576;28;20066;-64
2023/07/01 06:14:32;;;;;;;5.05;3.10;;;;;;;19.92;51.03;100012.47;4195355;28;20124;-64
2023/07/01 06:16:35;;;;;;;9.30;2.80;;;;;;;20.01;51.32;100014.81;4192930;28;20036;-64
2023/07/01 06:18:38;;;;;;;5.50;1.90;;;;;;;20.08;51.10;100008.44;4191133;28;20048;-64
2023/07/01 06:20:41;;;;;;;7.28;2.22;;;;;;;20.18;50.91;100004.59;4193423;28;20406;-64
2023/07/01 06:22:44;;;;;;;5.13;2.45;;;;;;;20.38;50.78;100003.94;4192361;28;20048;-64
2023/07/01 06:24:48;;;;;;;5.68;2.15;;;;;;;20.36;49.90;99997.81;4176972;28;20053;-64
2023/07/01 06:26:51;;;;;;;3.85;2.47;;;;;;;20.52;49.64;99998.16;4194169;28;20048;-64
2023/07/01 06:28:54;;;;;;;5.13;2.45;;;;;;;20.37;49.98;99998.66;4176654;28;20041;-64
2023/07/01 06:30:56;;;;;;;4.03;2.20;;;;;;;20.46;49.41;99995.75;4191049;28;20041;-64
2023/07/01 06:32:59;;;;;;;5.30;2.78;;;;;;;20.51;49.25;99993.78;4194870;28;20369;-64
2023/07/01 06:35:02;;;;;;;6.85;2.83;;;;;;;20.54;49.51;99995.47;4174327;28;20477;-63
2023/07/01 06:37:06;;;;;;;4.30;2.10;;;;;;;20.53;50.29;99991.97;4176240;28;20045;-63
2023/07/01 06:39:09;;;;;;;5.82;2.97;;;;;;;20.72;49.34;100000.16;4196544;28;20051;-64
2023/07/01 06:41:13;;;;;;;11.02;3.05;;;;;;;20.84;48.76;99993.56;4183269;28;20071;-63
2023/07/01 06:43:16;;;;;;;6.95;2.70;;;;;;;20.87;49.04;99996.09;4184081;28;20132;-63
2023/07/01 06:45:19;;;;;;;8.35;2.50;;;;;;;20.87;49.10;99997.88;4180916;28;20048;-63
2023/07/01 06:47:22;;;;;;;6.85;3.30;;;;;;;20.98;48.69;99987.75;4181204;28;20045;-63
2023/07/01 06:49:25;;;;;;;4.17;2.37;;;;;;;20.97;48.58;99994.00;4191761;28;20064;-63
2023/07/01 06:51:28;;;;;;;7.28;2.97;;;;;;;21.04;48.16;99984.91;4198760;28;20048;-63
2023/07/01 06:53:31;;;;;;;26.70;11.52;;;;;;;21.01;48.83;99986.78;4180994;28;20056;-63
2023/07/01 06:55:34;;;;;;;10.50;3.25;;;;;;;21.11;48.21;99985.53;4197442;28;20124;-64
2023/07/01 06:57:38;;;;;;;8.65;3.55;;;;;;;21.05;48.26;99985.78;4197889;28;20040;-64
2023/07/01 06:59:41;;;;;;;6.45;2.85;;;;;;;21.10;48.09;99984.69;4206386;22;20036;-74
2023/07/01 07:01:44;;;;;;;8.85;2.72;;;;;;;21.20;47.71;99977.28;4170990;28;20033;-75
2023/07/01 07:03:50;;;;;;;6.13;2.65;;;;;;;21.01;48.26;99981.50;4169357;28;20041;-75
2023/07/01 07:05:54;;;;;;;5.85;2.53;;;;;;;21.05;48.31;99991.06;4162814;28;20520;-77
2023/07/01 07:07:57;;;;;;;5.88;2.50;;;;;;;21.00;47.70;99985.09;4169911;28;20124;-70
2023/07/01 07:10:00;;;;;;;12.38;2.92;;;;;;;21.03;47.70;99990.25;4187282;28;20056;-70
2023/07/01 07:12:04;;;;;;;8.65;2.85;;;;;;;20.96;47.86;99986.13;4175505;28;20140;-71
2023/07/01 07:14:08;;;;;;;5.85;2.80;;;;;;;21.05;48.16;99991.06;4170849;28;20037;-66
2023/07/01 07:16:11;;;;;;;4.45;2.58;;;;;;;21.20;48.22;99987.84;4166877;28;20075;-66
2023/07/01 07:18:14;;;;;;;5.72;2.30;;;;;;;21.32;47.95;99983.00;4166176;28;20076;-72
2023/07/01 07:20:17;;;;;;;5.13;2.78;;;;;;;21.42;47.90;99979.09;4159937;28;20111;-69
2023/07/01 07:22:20;;;;;;;4.75;2.35;;;;;;;21.50;47.61;99977.03;4169789;28;20513;-71
2023/07/01 07:24:23;;;;;;;4.95;2.42;;;;;;;21.58;46.75;99977.63;4161981;28;20508;-70
2023/07/01 07:26:27;;;;;;;5.03;2.20;;;;;;;21.62;46.99;99978.34;4168217;28;20043;-71
2023/07/01 07:28:30;;;;;;;5.97;2.50;;;;;;;21.70;46.25;99983.34;4155831;28;20048;-72
2023/07/01 07:30:34;;;;;;;5.78;2.40;;;;;;;21.71;46.03;99988.59;4163368;28;20037;-67
2023/07/01 07:32:37;;;;;;;5.88;2.03;;;;;;;21.77;45.82;99984.81;4155525;28;20037;-67
2023/07/01 07:34:40;;;;;;;2.92;2.22;;;;;;;21.77;45.48;99976.88;4160365;28;20065;-68
2023/07/01 07:36:43;;;;;;;4.97;2.15;;;;;;;21.74;45.32;99964.66;4148087;28;20128;-66
2023/07/01 07:38:46;;;;;;;5.18;2.15;;;;;;;21.82;45.55;99971.44;4148134;28;20045;-66
2023/07/01 07:40:49;;;;;;;2.72;1.98;;;;;;;21.95;45.51;99970.00;4167150;28;20076;-66
2023/07/01 07:42:53;;;;;;;6.40;2.53;;;;;;;22.01;45.73;99966.25;4166888;28;20103;-67
2023/07/01 07:44:57;;;;;;;4.00;2.70;;;;;;;22.14;45.54;99964.81;4165647;28;20507;-66
2023/07/01 07:47:01;;;;;;;7.75;2.92;;;;;;;22.19;44.57;99968.09;4161607;28;20033;-68
2023/07/01 07:49:04;;;;;;;3.75;2.17;;;;;;;22.25;44.28;99962.56;4143061;28;20039;-68
2023/07/01 07:51:07;;;;;;;5.32;2.22;;;;;;;22.01;44.61;99975.03;4145255;28;20633;-68
2023/07/01 07:53:10;;;;;;;6.05;2.33;;;;;;;21.85;44.45;99972.16;4163503;28;20037;-68
2023/07/01 07:55:13;;;;;;;7.93;2.50;;;;;;;21.64;45.07;99962.41;4159338;28;20120;-68
2023/07/01 07:57:16;;;;;;;5.35;2.33;;;;;;;21.57;45.50;99964.47;4165090;28;20064;-68
2023/07/01 07:59:19;;;;;;;5.68;2.28;;;;;;;21.43;45.61;99959.66;4174211;28;20125;-68
2023/07/01 08:01:22;;;;;;;3.00;1.80;;;;;;;21.36;46.03;99956.41;4168214;28;20464;-68
2023/07/01 08:03:26;;;;;;;4.22;1.95;;;;;;;21.30;45.89;99953.13;4150931;28;20069;-67
2023/07/01 08:05:29;;;;;;;7.03;2.22;;;;;;;21.14;46.20;99958.13;4161093;28;20394;-68
2023/07/01 08:07:32;;;;;;;5.63;2.38;;;;;;;21.28;46.04;99946.09;4163148;28;20498;-68
2023/07/01 08:09:35;;;;;;;4.25;2.55;;;;;;;21.49;45.82;99953.28;4170985;28;20029;-68
2023/07/01 08:11:38;;;;;;;7.35;2.40;;;;;;;21.68;45.60;99953.44;4163784;28;20533;-68
2023/07/01 08:13:41;;;;;;;8.32;2.95;;;;;;;21.74;44.98;99932.91;4164487;28;20049;-69
2023/07/01 08:15:44;;;;;;;5.15;2.60;;;;;;;21.83;45.18;99944.00;4162591;28;20039;-65
2023/07/01 08:17:47;;;;;;;3.90;1.80;;;;;;;21.87;45.04;99941.19;4152737;28;20065;-67
2023/07/01 08:19:51;;;;;;;5.78;2.05;;;;;;;22.12;45.10;99940.16;4156422;28;20117;-66
2023/07/01 08:21:54;;;;;;;5.63;2.20;;;;;;;22.05;44.73;99934.28;4145348;28;20037;-67
2023/07/01 08:23:57;;;;;;;4.38;2.10;;;;;;;22.04;44.92;99935.19;4170875;28;20040;-66
2023/07/01 08:26:00;;;;;;;5.40;2.58;;;;;;;22.21;44.82;99936.25;4163996;28;20300;-65
2023/07/01 08:28:03;;;;;;;4.30;2.00;;;;;;;22.31;44.19;99938.47;4145624;28;20140;-65
2023/07/01 08:30:07;;;;;;;12.15;2.50;;;;;;;22.10;44.36;99934.09;4156644;28;20089;-64
2023/07/01 08:32:10;;;;;;;6.50;2.33;;;;;;;22.19;43.42;99923.09;4164326;28;20037;-64
2023/07/01 08:34:13;;;;;;;4.45;1.98;;;;;;;22.08;43.65;99926.22;4168196;28;20065;-65
2023/07/01 08:36:17;;;;;;;4.97;2.40;;;;;;;22.14;44.53;99919.78;4137545;28;20523;-64
2023/07/01 08:38:20;;;;;;;6.10;2.00;;;;;;;22.26;44.25;99919.25;4143389;28;20049;-64
2023/07/01 08:40:23;;;;;;;6.90;2.33;;;;;;;22.36;43.97;99919.75;4165785;28;20132;-64
2023/07/01 08:42:32;;;;;;;7.25;2.28;;;;;;;22.45;44.30;99923.81;4160442;28;20415;-64
2023/07/01 08:44:35;;;;;;;6.45;2.45;;;;;;;22.41;44.11;99907.16;4159566;28;20049;-64
2023/07/01 08:46:40;;;;;;;5.43;2.10;;;;;;;22.49;43.61;99906.84;4162767;28;20483;-64
2023/07/01 08:48:45;;;;;;;4.10;2.15;;;;;;;22.44;43.73;99924.72;4165054;28;20099;-63
2023/07/01 08:50:56;;;;;;;3.97;2.03;;;;;;;22.53;43.93;99911.09;4161632;28;20072;-64
2023/07/01 08:53:06;;;;;;;6.53;2.30;;;;;;;22.43;43.71;99905.31;4164070;28;20475;-64
2023/07/01 08:55:10;;;;;;;7.72;2.67;;;;;;;22.51;43.95;99906.78;4141620;28;20046;-65
2023/07/01 08:57:14;;;;;;;3.45;1.83;;;;;;;22.50;43.90;99903.25;4170187;28;20106;-65
2023/07/01 08:59:24;;;;;;;6.28;1.90;;;;;;;22.38;43.94;99917.91;4161976;28;20037;-65
2023/07/01 09:01:29;;;;;;;4.93;2.03;;;;;;;22.34;44.51;99907.50;4161993;28;20033;-65
2023/07/01 09:03:35;;;;;;;6.28;2.15;;;;;;;22.37;44.89;99902.06;4163426;28;20048;-65
2023/07/01 09:05:38;;;;;;;4.55;2.10;;;;;;;22.47;44.76;99892.78;4156978;28;20036;-66
2023/07/01 09:07:44;;;;;;;5.88;2.50;;;;;;;22.50;44.68;99895.31;4165897;28;20073;-66
2023/07/01 09:09:49;;;;;;;7.00;2.35;;;;;;;22.46;44.64;99897.25;4157744;28;20038;-64
2023/07/01 09:11:52;;;;;;;10.02;2.47;;;;;;;22.41;44.29;99890.41;4160343;28;20052;-63
2023/07/01 09:13:56;;;;;;;3.60;1.90;;;;;;;22.30;44.41;99878.47;4159375;28;20117;-62
2023/07/01 09:15:59;;;;;;;6.10;1.70;;;;;;;22.30;44.33;99881.13;4150571;28;20504;-63
2023/07/01 09:18:20;;;;;;;7.20;1.90;;;;;;;22.21;44.82;99884.19;4168429;28;20091;-63
2023/07/01 09:20:33;;;;;;;6.32;2.05;;;;;;;22.31;44.76;99882.88;4137554;28;20065;-62
2023/07/01 09:22:39;;;;;;;6.93;2.08;;;;;;;22.20;44.10;99879.81;4159764;28;20041;-62
2023/07/01 09:24:41;;;;;;;6.00;2.30;;;;;;;22.22;44.21;99877.94;4163672;28;20100;-62
2023/07/01 09:26:53;;;;;;;6.07;1.92;;;;;;;22.25;44.09;99884.91;4146337;28;20077;-62
2023/07/01 09:28:58;;;;;;;9.50;2.88;;;;;;;22.22;43.96;99870.00;4147599;28;20542;-62
2023/07/01 09:31:01;;;;;;;14.88;2.75;;;;;;;22.30;43.72;99874.97;4169143;28;20061;-62
2023/07/01 09:33:12;;;;;;;9.13;2.13;;;;;;;22.34;43.14;99873.97;4168060;28;20068;-62
2023/07/01 09:35:15;;;;;;;5.40;2.20;;;;;;;22.34;43.33;99879.25;4163616;28;20045;-63
2023/07/01 09:37:18;;;;;;;5.65;1.92;;;;;;;22.31;42.98;99869.63;4163924;28;20116;-63
2023/07/01 09:39:31;;;;;;;3.42;1.73;;;;;;;22.28;42.85;99868.88;4165958;28;20040;-62